| time (UTC) | temp F | wind direction | speed knots | gust knots | rain 1hr in | rain 24hr in | rain mn in | humidity % | barometer mb |
| 20260901140852 | 59 | 159 | 0.0 | 0.9 | 0.00 | 0.00 | 0.00 | 64 | 1010.3 |
| 20260901135352 | 59 | 159 | 0.0 | 0.9 | 0.00 | 0.00 | 0.00 | 64 | 1010.3 |
| 20260901133851 | 59 | 159 | 0.9 | 2.6 | 0.00 | 0.00 | 0.00 | 64 | 1010.1 |
| 20260901133052 | 59 | 159 | 0.9 | 1.7 | 0.00 | 0.00 | 0.00 | 63 | 1010.2 |
| 20260901130850 | 59 | 159 | 0.9 | 2.6 | 0.00 | 0.00 | 0.00 | 64 | 1010.2 |
| 20260901125350 | 59 | 158 | 0.0 | 1.7 | 0.00 | 0.00 | 0.00 | 64 | 1010.0 |
| 20260901123850 | 59 | 159 | 0.0 | 1.7 | 0.00 | 0.00 | 0.00 | 64 | 1009.9 |
| 20260901122349 | 59 | 182 | 0.0 | 1.7 | 0.00 | 0.00 | 0.00 | 64 | 1010.1 |
| 20260901120849 | 59 | 183 | 0.0 | 3.5 | 0.00 | 0.00 | 0.00 | 64 | 1010.0 |
| 20260901115351 | 59 | 164 | 0.9 | 3.5 | 0.00 | 0.00 | 0.00 | 64 | 1010.0 |
| 20260901113849 | 58 | 171 | 0.0 | 4.3 | 0.00 | 0.00 | 0.00 | 64 | 1010.0 |
| 20260901112348 | 59 | 161 | 1.7 | 2.6 | 0.00 | 0.00 | 0.00 | 64 | 1009.9 |
| 20260901110847 | 58 | 124 | 0.0 | 1.7 | 0.00 | 0.00 | 0.00 | 65 | 1009.8 |
| 20260901105348 | 58 | 124 | 0.0 | 0.9 | 0.00 | 0.00 | 0.00 | 64 | 1009.7 |
| 20260901105251 | 59 | 124 | 0.9 | 1.7 | 0.00 | 0.00 | 0.00 | 63 | 1009.7 |
| 20260901102347 | 59 | 124 | 0.0 | 2.6 | 0.00 | 0.00 | 0.00 | 63 | 1009.6 |
| 20260901100846 | 59 | 134 | 0.0 | 1.7 | 0.00 | 0.00 | 0.00 | 62 | 1009.6 |
| 20260901095346 | 60 | 182 | 0.9 | 2.6 | 0.00 | 0.00 | 0.00 | 62 | 1009.5 |
| 20260901093846 | 60 | 196 | 0.0 | 1.7 | 0.00 | 0.00 | 0.00 | 62 | 1009.4 |
| 20260901093038 | 60 | 202 | 0.9 | 2.6 | 0.00 | 0.00 | 0.00 | 61 | 1009.3 |
| 20260901090845 | 60 | 209 | 0.9 | 4.3 | 0.00 | 0.00 | 0.00 | 61 | 1009.2 |
| 20260901090037 | 60 | 106 | 0.9 | 1.7 | 0.00 | 0.00 | 0.00 | 62 | 1009.0 |
| 20260901083844 | 61 | 159 | 0.0 | 1.7 | 0.00 | 0.00 | 0.00 | 61 | 1009.1 |
| 20260901082344 | 61 | 168 | 0.9 | 4.3 | 0.00 | 0.00 | 0.00 | 61 | 1009.1 |
| 20260901080843 | 62 | 175 | 0.9 | 3.5 | 0.00 | 0.00 | 0.00 | 60 | 1009.1 |
| 20260901075343 | 62 | 179 | 0.9 | 3.5 | 0.00 | 0.00 | 0.00 | 59 | 1009.0 |
| 20260901073843 | 62 | 78 | 0.9 | 3.5 | 0.00 | 0.00 | 0.00 | 59 | 1008.7 |
| 20260901072342 | 63 | 195 | 0.9 | 3.5 | 0.00 | 0.00 | 0.00 | 58 | 1008.6 |
| 20260901070843 | 64 | 164 | 1.7 | 4.3 | 0.00 | 0.00 | 0.00 | 56 | 1008.5 |
| 20260901065342 | 65 | 162 | 1.7 | 5.2 | 0.00 | 0.00 | 0.00 | 54 | 1008.2 |
| 20260901063842 | 66 | 172 | 1.7 | 3.5 | 0.00 | 0.00 | 0.00 | 52 | 1008.0 |
| 20260901062342 | 67 | 158 | 0.0 | 0.0 | 0.00 | 0.00 | 0.00 | 53 | 1007.7 |
| 20260901060841 | 68 | 158 | 0.0 | 0.9 | 0.00 | 0.00 | 0.00 | 51 | 1007.5 |
| 20260901055341 | 69 | 158 | 0.0 | 0.0 | 0.00 | 0.00 | 0.00 | 51 | 1007.4 |
| 20260901053841 | 70 | 158 | 0.0 | 0.0 | 0.00 | 0.00 | 0.00 | 49 | 1007.2 |
| 20260901052340 | 70 | 158 | 0.0 | 0.9 | 0.00 | 0.00 | 0.00 | 49 | 1007.2 |
| 20260901050839 | 71 | 158 | 0.0 | 1.7 | 0.00 | 0.00 | 0.00 | 47 | 1007.2 |
| 20260901045339 | 71 | 158 | 0.0 | 0.9 | 0.00 | 0.00 | 0.00 | 45 | 1007.1 |
| 20260901043839 | 71 | 158 | 0.0 | 0.9 | 0.00 | 0.00 | 0.00 | 43 | 1006.9 |
| 20260901042338 | 72 | 158 | 0.0 | 1.7 | 0.00 | 0.00 | 0.00 | 42 | 1006.6 |
| 20260901040838 | 72 | 158 | 0.9 | 1.7 | 0.00 | 0.00 | 0.00 | 42 | 1006.5 |
| 20260901035337 | 73 | 158 | 0.0 | 0.9 | 0.00 | 0.00 | 0.00 | 40 | 1006.2 |
| 20260901033837 | 75 | 158 | 0.0 | 0.9 | 0.00 | 0.00 | 0.00 | 38 | 1005.9 |
| 20260901033028 | 76 | 158 | 0.0 | 0.9 | 0.00 | 0.00 | 0.00 | 35 | 1005.8 |
| 20260901030836 | 78 | 158 | 0.0 | 0.9 | 0.00 | 0.00 | 0.00 | 33 | 1005.6 |
| 20260901030734 | 79 | 158 | 0.0 | 0.9 | 0.00 | 0.00 | 0.00 | 31 | 1005.6 |
| 20260901023836 | 80 | 158 | 0.0 | 1.7 | 0.00 | 0.00 | 0.00 | 30 | 1005.6 |
| 20260901022336 | 81 | 158 | 1.7 | 3.5 | 0.00 | 0.00 | 0.00 | 29 | 1005.6 |
| 20260901020835 | 82 | 241 | 1.7 | 4.3 | 0.00 | 0.00 | 0.00 | 28 | 1005.6 |
| 20260901015335 | 82 | 217 | 1.7 | 3.5 | 0.00 | 0.00 | 0.00 | 27 | 1005.5 |
| 20260901013834 | 83 | 173 | 1.7 | 4.3 | 0.00 | 0.00 | 0.00 | 26 | 1005.4 |
| 20260901012335 | 83 | 216 | 0.9 | 2.6 | 0.00 | 0.00 | 0.00 | 22 | 1005.4 |
| 20260901010834 | 84 | 196 | 0.9 | 3.5 | 0.00 | 0.00 | 0.00 | 22 | 1005.5 |
| 20260901005334 | 84 | 238 | 0.9 | 5.2 | 0.00 | 0.00 | 0.00 | 21 | 1005.5 |
| 20260901003834 | 84 | 220 | 1.7 | 2.6 | 0.00 | 0.00 | 0.00 | 20 | 1005.5 |
| 20260901002332 | 84 | 230 | 1.7 | 4.3 | 0.00 | 0.00 | 0.00 | 23 | 1005.6 |
| 20260901000833 | 85 | 235 | 1.7 | 3.5 | 0.00 | 0.00 | 0.00 | 21 | 1005.7 |
| 20260901000032 | 85 | 220 | 0.9 | 2.6 | 0.00 | 0.00 | 0.00 | 22 | 1005.7 |
| 20260831233831 | 85 | 226 | 1.7 | 2.6 | 0.00 | 0.00 | 0.00 | 23 | 1005.8 |
| 20260831232331 | 85 | 224 | 0.9 | 4.3 | 0.00 | 0.00 | 0.00 | 21 | 1005.7 |
| 20260831230832 | 86 | 237 | 1.7 | 2.6 | 0.00 | 0.00 | 0.00 | 20 | 1005.8 |
| 20260831225331 | 86 | 200 | 1.7 | 4.3 | 0.00 | 0.00 | 0.00 | 21 | 1006.1 |
| 20260831223831 | 86 | 281 | 0.9 | 4.3 | 0.00 | 0.00 | 0.00 | 23 | 1006.2 |
| 20260831222331 | 85 | 179 | 0.9 | 3.5 | 0.00 | 0.00 | 0.00 | 25 | 1006.3 |
| 20260831220830 | 85 | 58 | 0.9 | 3.5 | 0.00 | 0.00 | 0.00 | 24 | 1006.4 |
| 20260831215330 | 85 | 151 | 1.7 | 3.5 | 0.00 | 0.00 | 0.00 | 24 | 1006.5 |
| 20260831213829 | 84 | 166 | 0.9 | 4.3 | 0.00 | 0.00 | 0.00 | 24 | 1006.6 |
| 20260831212328 | 83 | 214 | 0.9 | 2.6 | 0.00 | 0.00 | 0.00 | 27 | 1006.9 |
| 20260831210829 | 83 | 179 | 1.7 | 3.5 | 0.00 | 0.00 | 0.00 | 28 | 1007.0 |
| 20260831205328 | 82 | 166 | 1.7 | 5.2 | 0.00 | 0.00 | 0.00 | 27 | 1007.1 |
| 20260831203828 | 81 | 158 | 1.7 | 3.5 | 0.00 | 0.00 | 0.00 | 28 | 1007.3 |
| 20260831202328 | 81 | 193 | 1.7 | 3.5 | 0.00 | 0.00 | 0.00 | 30 | 1007.4 |
| 20260831200827 | 80 | 180 | 1.7 | 4.3 | 0.00 | 0.00 | 0.00 | 31 | 1007.7 |
| 20260831195327 | 79 | 221 | 0.0 | 3.5 | 0.00 | 0.00 | 0.00 | 31 | 1007.9 |
| 20260831193826 | 78 | 230 | 0.0 | 0.0 | 0.00 | 0.00 | 0.00 | 33 | 1007.9 |
| 20260831192327 | 76 | 93 | 0.0 | 0.0 | 0.00 | 0.00 | 0.00 | 33 | 1008.1 |
| 20260831190826 | 74 | 255 | 0.0 | 1.7 | 0.00 | 0.00 | 0.00 | 39 | 1008.4 |
| 20260831185325 | 73 | 298 | 0.9 | 4.3 | 0.00 | 0.00 | 0.00 | 41 | 1008.6 |
| 20260831183825 | 71 | 285 | 0.0 | 3.5 | 0.00 | 0.00 | 0.00 | 43 | 1008.9 |
| 20260831182324 | 70 | 141 | 0.9 | 3.5 | 0.00 | 0.00 | 0.00 | 46 | 1009.1 |
| 20260831180824 | 68 | 220 | 0.9 | 2.6 | 0.00 | 0.00 | 0.00 | 47 | 1009.3 |
| 20260831180017 | 67 | 255 | 1.7 | 2.6 | 0.00 | 0.00 | 0.00 | 49 | 1009.5 |
| 20260831173824 | 66 | 320 | 0.0 | 2.6 | 0.00 | 0.00 | 0.00 | 50 | 1009.6 |
| 20260831172323 | 65 | 326 | 0.9 | 1.7 | 0.00 | 0.00 | 0.00 | 52 | 1009.7 |
| 20260831170823 | 64 | 323 | 0.9 | 1.7 | 0.00 | 0.00 | 0.00 | 53 | 1009.9 |
| 20260831165323 | 63 | 317 | 0.9 | 1.7 | 0.00 | 0.00 | 0.00 | 54 | 1010.0 |
| 20260831163822 | 63 | 317 | 0.9 | 1.7 | 0.00 | 0.00 | 0.00 | 56 | 1010.1 |
| 20260831163014 | 62 | 300 | 0.0 | 1.7 | 0.00 | 0.00 | 0.00 | 55 | 1010.1 |
| 20260831160821 | 62 | 298 | 0.9 | 2.6 | 0.00 | 0.00 | 0.00 | 56 | 1010.3 |
| 20260831155319 | 61 | 334 | 0.0 | 0.9 | 0.00 | 0.00 | 0.00 | 58 | 1010.4 |
| 20260831153817 | 60 | 334 | 0.9 | 1.7 | 0.00 | 0.00 | 0.00 | 59 | 1010.3 |
| 20260831153007 | 59 | 303 | 0.0 | 2.6 | 0.00 | 0.00 | 0.00 | 60 | 1010.4 |
| 20260831150817 | 59 | 241 | 0.0 | 0.9 | 0.00 | 0.00 | 0.00 | 61 | 1010.5 |
| 20260831145317 | 58 | 241 | 0.0 | 1.7 | 0.00 | 0.00 | 0.00 | 62 | 1010.7 |
| 20260831144508 | 57 | 241 | 0.0 | 0.9 | 0.00 | 0.00 | 0.00 | 63 | 1010.6 |
| 20260831142316 | 56 | 241 | 0.0 | 0.0 | 0.00 | 0.00 | 0.00 | 64 | 1010.6 |